»·PEaware :: DFGCW KSEA-KMWH

DFGCW :: KSEA-KMWH

FLIGHT INFORMATION

Flight Status: Arrived
Operator: Unknown
More flights by this operator :: More flights under this callsign
Pilot: Klaus A. (15485)
Aircraft: PILATUS PC-12 EAGLE
(PC12)
More flights by this aircraft type
Origin: KSEA Seattle-Tacoma Intl
United States
Destination: KMWH Grant Co Intl
United States
More flights between these airports :: More routes between these airports
Route: +SEA6 VAMPS V2 ELN MWH
File this flight plan on PilotEdge
Remarks: PBN / D2 DOF / 180803 REG / DFGCW PER / B RMK / TCAS SIMBRIEF
Altitude:
(Current/Filed)
15,000ft
Speed:
(Current/Filed)
270kts
Departed: 03-Aug-18 09:06 AM
Arrived: 03-Aug-18 09:53 AM
Distance/Time
Traveled:
122nm/0:47
Distance/Time
To Go:
Arrived

Flight Plot

Page will automatically refresh every two minutes.

Flight plan parsing failed; only flown route is shown


Map Options




Map Legend


Flown Route
Filed Route
Departure Airport
Arrival Airport
Navaid (VOR, NDB)
Fix

Horizontal Profiles

Position Reports

Time Latitude Longitude Heading Altitude Ground
Speed
03-Aug-18 08:44 47.439177 -122.315210 54 438ft 0kts
03-Aug-18 08:45 47.439177 -122.315210 54 438ft 0kts
03-Aug-18 08:46 47.439177 -122.315210 55 438ft 0kts
03-Aug-18 08:47 47.439177 -122.315210 55 438ft 0kts
03-Aug-18 08:48 47.439177 -122.315210 55 438ft 0kts
03-Aug-18 08:49 47.439177 -122.315210 55 438ft 0kts
03-Aug-18 08:50 47.439177 -122.315210 55 438ft 0kts
03-Aug-18 08:51 47.439177 -122.315210 55 438ft 0kts
03-Aug-18 08:52 47.439177 -122.315210 55 438ft 0kts
03-Aug-18 08:53 47.439177 -122.315210 55 438ft 0kts
03-Aug-18 08:54 47.439177 -122.315210 55 438ft 0kts
03-Aug-18 08:55 47.439177 -122.315210 55 438ft 0kts
03-Aug-18 08:56 47.439177 -122.315210 55 438ft 0kts
03-Aug-18 08:57 47.439177 -122.315210 55 438ft 0kts
03-Aug-18 08:58 47.439177 -122.315210 55 438ft 0kts
03-Aug-18 08:59 47.439177 -122.315210 55 438ft 0kts
03-Aug-18 09:00 47.439177 -122.315210 55 438ft 0kts
03-Aug-18 09:01 47.439294 -122.314103 51 439ft 7kts
03-Aug-18 09:02 47.440136 -122.315039 328 439ft 14kts
03-Aug-18 09:03 47.440634 -122.316680 272 439ft 0kts
03-Aug-18 09:04 47.440634 -122.316680 272 439ft 0kts
03-Aug-18 09:05 47.440634 -122.316680 272 439ft 0kts
03-Aug-18 09:06 47.440661 -122.317381 275 439ft 10kts
03-Aug-18 09:07 47.455625 -122.316083 3 805ft 120kts
03-Aug-18 09:08 47.493317 -122.307795 6 2692ft 152kts
03-Aug-18 09:09 47.544460 -122.298588 5 3018ft 204kts
03-Aug-18 09:10 47.586268 -122.275235 77 4303ft 172kts
03-Aug-18 09:11 47.552302 -122.236063 160 5197ft 177kts
03-Aug-18 09:12 47.512977 -122.198141 136 7257ft 178kts
03-Aug-18 09:13 47.478323 -122.146905 138 9113ft 183kts
03-Aug-18 09:14 47.440565 -122.091568 134 10924ft 198kts
03-Aug-18 09:15 47.401043 -122.033324 135 12746ft 205kts
03-Aug-18 09:16 47.363490 -121.970652 108 14373ft 210kts
03-Aug-18 09:17 47.343932 -121.883138 106 15019ft 252kts
03-Aug-18 09:18 47.321449 -121.779844 106 15006ft 275kts
03-Aug-18 09:19 47.297783 -121.671478 106 15006ft 280kts
03-Aug-18 09:20 47.273763 -121.562062 106 15004ft 282kts
03-Aug-18 09:21 47.249512 -121.452180 106 15005ft 282kts
03-Aug-18 09:22 47.225460 -121.343758 107 15004ft 282kts
03-Aug-18 09:23 47.201365 -121.235728 107 15003ft 282kts
03-Aug-18 09:24 47.176786 -121.126082 107 15003ft 283kts
03-Aug-18 09:25 47.152021 -121.016200 107 15005ft 283kts
03-Aug-18 09:26 47.127113 -120.906223 107 14898ft 285kts
03-Aug-18 09:27 47.102087 -120.796275 107 14895ft 284kts
03-Aug-18 09:28 47.076920 -120.686275 107 14898ft 284kts
03-Aug-18 09:29 47.051793 -120.577009 107 14999ft 282kts
03-Aug-18 09:30 47.027112 -120.467614 97 14982ft 284kts
03-Aug-18 09:31 47.041669 -120.356369 73 14978ft 281kts
03-Aug-18 09:32 47.059971 -120.246437 73 14964ft 280kts
03-Aug-18 09:33 47.078403 -120.135537 73 14951ft 280kts
03-Aug-18 09:34 47.096958 -120.023220 73 13558ft 285kts
03-Aug-18 09:35 47.115474 -119.910350 74 12186ft 286kts
03-Aug-18 09:36 47.133800 -119.797982 74 10780ft 278kts
03-Aug-18 09:37 47.151503 -119.688595 74 9388ft 273kts
03-Aug-18 09:38 47.168475 -119.582587 74 8005ft 263kts
03-Aug-18 09:39 47.185208 -119.478818 77 6969ft 250kts
03-Aug-18 09:40 47.200242 -119.383919 77 6963ft 231kts
03-Aug-18 09:41 47.186925 -119.308105 156 6982ft 214kts
03-Aug-18 09:42 47.130458 -119.279853 163 6387ft 218kts
03-Aug-18 09:43 47.074138 -119.253980 163 5369ft 203kts
03-Aug-18 09:44 47.021510 -119.229896 163 4370ft 195kts
03-Aug-18 09:45 46.972849 -119.205218 158 3956ft 167kts
03-Aug-18 09:46 46.929849 -119.180472 159 3980ft 171kts
03-Aug-18 09:47 46.941617 -119.135321 343 4005ft 194kts
03-Aug-18 09:48 46.978526 -119.192754 307 4001ft 198kts
03-Aug-18 09:49 47.018018 -119.230741 336 3972ft 169kts
03-Aug-18 09:50 47.064326 -119.257509 10 2902ft 197kts
03-Aug-18 09:51 47.115021 -119.260602 352 2378ft 191kts
03-Aug-18 09:52 47.156275 -119.292778 331 1892ft 161kts
03-Aug-18 09:53 47.189465 -119.309330 340 1301ft 113kts
03-Aug-18 09:54 47.211575 -119.319842 342 1191ft 36kts
03-Aug-18 09:55 47.217213 -119.324786 251 1191ft 0kts
03-Aug-18 09:56 47.217213 -119.324786 251 1191ft 0kts
03-Aug-18 09:57 47.217213 -119.324786 251 1191ft 0kts
03-Aug-18 09:58 47.214989 -119.326549 200 1191ft 22kts
03-Aug-18 09:59 47.207900 -119.329998 203 1190ft 29kts
03-Aug-18 10:00 47.199973 -119.333836 195 1191ft 30kts
03-Aug-18 10:01 47.194420 -119.331559 179 1191ft 16kts
03-Aug-18 10:02 47.190962 -119.329980 155 1190ft 6kts
03-Aug-18 10:03 47.190901 -119.329386 349 1191ft 0kts
03-Aug-18 10:04 47.190900 -119.329387 348 1191ft 0kts
03-Aug-18 10:05 47.190900 -119.329387 348 1191ft 0kts
03-Aug-18 10:06 47.190900 -119.329387 348 1191ft 0kts
03-Aug-18 10:07 47.190900 -119.329387 348 1191ft 0kts
03-Aug-18 10:08 47.190900 -119.329387 348 1191ft 0kts

Navigation Log

Ident Type
Flight plan parsing failed, navigation log unavailable